Flight Track Log - Related Links

Times and Time Zones

All times are in EDT time to prevent confusion due to time zone crossing. See the F-HPJG flight status page for this flight to view local times or setup timezone preferences in your user account.

Time Position Orientation Groundspeed Altitude Reporting Facility
EDT Latitude Longitude Course Direction KTS MPH feet Rate Location/Type
Thu 05:02:00 AM 49.8420 0.4733 303° West  Level FlightAware Approximate
Thu 05:03:00 AM 49.9083 0.3149 303° West  Level FlightAware Approximate
Thu 05:04:00 AM 49.9745 0.1561 303° West  Level FlightAware Approximate
Thu 05:05:00 AM 50.0404 -0.0031 303° West  Level FlightAware Approximate
Thu 05:06:00 AM 50.1005 -0.1679 298° West  Level FlightAware Approximate
Thu 05:17:16 AM 49.0227 2.5520 62° Northeast 74 85 400  Level FlightAware ADS-B
Thu 05:17:33 AM 49.0220 2.5369 266° West 147 169 300 474 Descending FlightAware ADS-B
Thu 05:17:54 AM 49.0208 2.5136 266° West 155 178 700 1,263 Climbing FlightAware ADS-B
Thu 05:18:11 AM 49.0199 2.4950 266° West 156 180 1,100 1,125 Climbing FlightAware ADS-B
Thu 05:18:26 AM 49.0193 2.4773 267° West 156 180 1,300 1,227 Climbing FlightAware ADS-B
Thu 05:18:55 AM 49.0181 2.4444 267° West 156 180 2,000 1,333 Climbing FlightAware ADS-B
Thu 05:19:11 AM 49.0175 2.4261 267° West 166 191 2,300 1,304 Climbing FlightAware ADS-B
Thu 05:19:18 AM 49.0182 2.4180 278° West 167 192 2,500 1,826 Climbing FlightAware ADS-B
Thu 05:19:34 AM 49.0255 2.4023 305° West 173 199 3,000 1,636 Climbing FlightAware ADS-B
Thu 05:19:40 AM 49.0296 2.3983 327° Northwest 176 203 3,100 1,333 Climbing FlightAware ADS-B
Thu 05:19:43 AM 49.0318 2.3965 331° Northwest 176 203 3,200 1,200 Climbing FlightAware ADS-B
Thu 05:20:00 AM 49.0436 2.3869 332° Northwest 180 207 3,500 938 Climbing FlightAware ADS-B
Thu 05:20:15 AM 49.0552 2.3773 331° Northwest 197 227 3,700 563 Climbing FlightAware ADS-B
Thu 05:20:32 AM 49.0693 2.3651 331° Northwest 220 253 3,800 545 Climbing FlightAware ADS-B
Thu 05:20:48 AM 49.0848 2.3512 329° Northwest 240 276 4,000 774 Climbing FlightAware ADS-B
Thu 05:21:03 AM 49.0997 2.3370 328° Northwest 261 300 4,200 1,161 Climbing FlightAware ADS-B
Thu 05:21:19 AM 49.1160 2.3218 328° Northwest 274 315 4,600 2,368 Climbing FlightAware ADS-B
Thu 05:21:41 AM 49.1408 2.3009 331° Northwest 273 314 5,700 2,880 Climbing FlightAware ADS-B
Thu 05:21:44 AM 49.1445 2.2990 341° North 276 318 5,800 2,667 Climbing FlightAware ADS-B
Thu 05:21:50 AM 49.1518 2.2966 348° North 281 323 6,100 2,308 Climbing FlightAware ADS-B
Thu 05:21:57 AM 49.1609 2.2957 356° North 286 329 6,300 1,579 Climbing FlightAware ADS-B
Thu 05:22:09 AM 49.1775 2.2967 North 298 343 6,600 1,941 Climbing FlightAware ADS-B
Thu 05:22:31 AM 49.2074 2.3007 North 303 349 7,400 2,372 Climbing FlightAware ADS-B
Thu 05:22:52 AM 49.2366 2.3061 North 304 350 8,300 2,432 Climbing FlightAware ADS-B
Thu 05:23:08 AM 49.2591 2.3102 North 310 357 8,900 2,129 Climbing FlightAware ADS-B
Thu 05:23:23 AM 49.2816 2.3137 North 313 360 9,400 1,655 Climbing FlightAware ADS-B
Thu 05:23:37 AM 49.3017 2.3164 North 314 361 9,700 1,091 Climbing FlightAware ADS-B
Thu 05:23:56 AM 49.3290 2.3196 North 314 361 10,000 1,019 Climbing FlightAware ADS-B
Thu 05:24:30 AM 49.3801 2.3249 North 338 389 10,600 -960 Climbing FlightAware ADS-B
Thu 05:24:46 AM 49.4087 2.3361 North 316 364 9,200 909 Descending FlightAware UK
Thu 05:25:03 AM 49.4346 2.3305 North 367 422 11,100 1,000 Climbing FlightAware ADS-B
Thu 05:25:22 AM 49.4682 2.3358 North 362 417 9,800 882 Descending FlightAware UK
Thu 05:25:37 AM 49.4950 2.3371 North 406 467 11,600 1,297 Climbing FlightAware ADS-B
Thu 05:25:59 AM 49.5357 2.3404 North 390 449 10,600 1,950 Descending FlightAware UK
Thu 05:26:17 AM 49.5731 2.3411 North 421 484 12,900 5,600 Climbing FlightAware ADS-B
Thu 05:26:29 AM 49.5947 2.3333 347° North 417 480 13,400 -167 Climbing FlightAware ADS-B
Thu 05:26:53 AM 49.6400 2.3134 347° North 404 465 12,800 2,516 Descending FlightAware UK
Thu 05:27:00 AM 49.6527 2.3092 347° North 421 484 14,700 4,737 Climbing FlightAware ADS-B
Thu 05:27:31 AM 49.7118 2.2866 346° North 430 495 15,800 2,129 Climbing FlightAware ADS-B
Thu 05:28:02 AM 49.7717 2.2632 346° North 435 501 16,900 2,063 Climbing FlightAware ADS-B
Thu 05:28:35 AM 49.8380 2.2373 346° North 444 511 18,000 240 Climbing FlightAware ADS-B
Thu 05:28:52 AM 49.8725 2.2245 346° North 428 493 17,100 2,000 Descending FlightAware UK
Thu 05:29:05 AM 49.8979 2.2140 346° North 450 518 19,000 1,742 Climbing FlightAware ADS-B
Thu 05:29:23 AM 49.9331 2.2004 346° North 436 502 18,000 1,953 Descending FlightAware UK
Thu 05:29:48 AM 49.9851 2.1799 346° North 453 521 20,400 1,902 Climbing FlightAware ADS-B
Thu 05:30:04 AM 50.0192 2.1671 346° North 442 509 19,300 1,688 Descending FlightAware UK
Thu 05:30:20 AM 50.0516 2.1537 346° North 464 534 21,300 1,667 Climbing FlightAware ADS-B
Thu 05:30:40 AM 50.0941 2.1371 346° North 450 518 20,300 1,800 Descending FlightAware UK
Thu 05:31:00 AM 50.1336 2.1214 346° North 471 542 22,500 1,625 Climbing FlightAware ADS-B
Thu 05:31:28 AM 50.1954 2.0975 346° North 456 525 21,600 -522 Descending FlightAware UK
Thu 05:31:46 AM 50.2341 2.0822 346° North 462 532 22,100 4,000 Climbing FlightAware UK
Thu 05:32:10 AM 50.2836 2.0570 346° North 475 547 24,400 1,857 Climbing FlightAware ADS-B
Thu 05:32:28 AM 50.3216 2.0335 346° North 468 539 23,400 1,588 Descending FlightAware UK
Thu 05:32:44 AM 50.3512 2.0112 346° North 470 541 25,300 1,333 Climbing FlightAware ADS-B
Thu 05:33:04 AM 50.3910 1.9779 346° North 476 548 24,200 -1,091 Descending FlightAware UK
Thu 05:33:28 AM 50.4349 1.9347 328° Northwest 476 548 24,500 429 Climbing FlightAware UK
Thu 05:33:46 AM 50.4660 1.8992 324° Northwest 476 548 24,500 556 Level FlightAware UK
Thu 05:34:22 AM 50.5233 1.8214 319° Northwest 480 552 25,000 1,000 Climbing FlightAware UK
Thu 05:34:40 AM 50.5535 1.7848 322° Northwest 482 555 25,400 1,273 Climbing FlightAware UK
Thu 05:35:28 AM 50.6394 1.6906 325° Northwest 490 564 26,400 1,000 Climbing FlightAware UK
Thu 05:35:46 AM 50.6708 1.6536 323° Northwest 490 564 26,500 167 Climbing FlightAware UK
Thu 05:36:04 AM 50.7020 1.6164 323° Northwest 490 564 26,500  Level FlightAware UK
Thu 05:36:22 AM 50.7333 1.5788 323° Northwest 492 566 26,500  Level FlightAware UK
Thu 05:36:58 AM 50.7962 1.5032 323° Northwest 490 564 26,500  Level FlightAware UK
Thu 05:37:22 AM 50.8386 1.4526 323° Northwest 490 564 26,500 125 Level FlightAware UK
Thu 05:37:46 AM 50.8804 1.4023 323° Northwest 492 566 26,600 923 Climbing FlightAware UK
Thu 05:38:40 AM 50.9746 1.2890 323° Northwest 492 566 27,700 1,154 Climbing FlightAware UK
Thu 05:39:04 AM 51.0161 1.2384 323° Northwest 498 573 28,100 1,143 Climbing FlightAware UK
Thu 05:39:22 AM 51.0487 1.1989 323° Northwest 498 573 28,500 667 Climbing FlightAware UK
Thu 05:39:40 AM 51.0802 1.1609 323° Northwest 496 571 28,500  Level FlightAware UK
Thu 05:39:58 AM 51.1117 1.1225 323° Northwest 494 568 28,500 143 Level FlightAware UK
Thu 05:40:22 AM 51.1539 1.0711 323° Northwest 494 568 28,600 571 Climbing FlightAware UK
Thu 05:40:40 AM 51.1856 1.0324 322° Northwest 496 571 28,900 1,000 Climbing FlightAware UK
Thu 05:40:58 AM 51.2172 0.9936 322° Northwest 494 568 29,200 833 Climbing FlightAware UK
Thu 05:41:16 AM 51.2485 0.9549 322° Northwest 496 571 29,400 1,000 Climbing FlightAware UK
Thu 05:41:34 AM 51.2803 0.9159 322° Northwest 494 568 29,800 1,000 Climbing FlightAware UK
Thu 05:41:52 AM 51.3122 0.8768 323° Northwest 492 566 30,000 500 Climbing FlightAware UK
Thu 05:42:10 AM 51.3446 0.8370 322° Northwest 494 568 30,100 500 Climbing FlightAware UK
Thu 05:42:28 AM 51.3772 0.7965 322° Northwest 504 580 30,300 1,250 Climbing FlightAware UK
Thu 05:42:58 AM 51.4310 0.7300 322° Northwest 496 571 31,100 1,333 Climbing FlightAware UK
Thu 05:43:22 AM 51.4736 0.6773 322° Northwest 496 571 31,500 571 Climbing FlightAware UK
Thu 05:43:40 AM 51.5049 0.6384 322° Northwest 496 571 31,500  Level FlightAware UK
Thu 05:43:58 AM 51.5365 0.5992 322° Northwest 494 568 31,500  Level FlightAware UK
Thu 05:44:16 AM 51.5681 0.5598 322° Northwest 494 568 31,500 -167 Level FlightAware UK
Thu 05:44:34 AM 51.5998 0.5197 322° Northwest 498 573 31,400  Descending FlightAware UK
Thu 05:44:57 AM 51.6419 0.4668 322° Northwest 496 571 31,500 102 Climbing FlightAware UK
Thu 05:45:33 AM 51.7053 0.3875 322° Northwest 492 566 31,500  Level FlightAware UK
Thu 05:45:51 AM 51.7367 0.3480 322° Northwest 494 568 31,500  Level FlightAware UK
Thu 05:46:15 AM 51.7785 0.2951 322° Northwest 494 568 31,500 375 Level FlightAware UK
Thu 05:46:39 AM 51.8201 0.2419 322° Northwest 498 573 31,800 1,125 Climbing FlightAware UK
Thu 05:47:03 AM 51.8625 0.1887 322° Northwest 500 575 32,400 1,200 Climbing FlightAware UK
Thu 05:47:39 AM 51.9249 0.1088 322° Northwest 496 571 33,000 778 Climbing FlightAware UK
Thu 05:47:57 AM 51.9559 0.0692 322° Northwest 496 571 33,100 333 Climbing FlightAware UK
Thu 05:48:15 AM 51.9871 0.0292 322° Northwest 498 573 33,200 500 Climbing FlightAware UK
Thu 05:48:33 AM 52.0198 -0.0099 324° Northwest 498 573 33,400 500 Climbing FlightAware UK
Thu 05:48:51 AM 52.0544 -0.0456 328° Northwest 498 573 33,500 333 Climbing FlightAware UK
Thu 05:49:09 AM 52.0907 -0.0778 331° Northwest 500 575 33,600 667 Climbing FlightAware UK
Thu 05:49:27 AM 52.1276 -0.1090 333° Northwest 498 573 33,900 857 Climbing FlightAware UK
Thu 05:49:51 AM 52.1761 -0.1516 332° Northwest 496 571 34,200 714 Climbing FlightAware UK
Thu 05:50:09 AM 52.2124 -0.1837 332° Northwest 498 573 34,400 429 Climbing FlightAware UK
Thu 05:50:33 AM 52.2607 -0.2269 331° Northwest 500 575 34,500 83 Climbing FlightAware UK
Thu 05:51:21 AM 52.3583 -0.3131 332° Northwest 502 578 34,500  Level FlightAware UK
Thu 05:51:39 AM 52.3950 -0.3456 332° Northwest 500 575 34,500  Level FlightAware UK
Thu 05:52:15 AM 52.4683 -0.4108 332° Northwest 502 578 34,500  Level FlightAware UK
Thu 05:52:57 AM 52.5534 -0.4871 331° Northwest 500 575 34,500  Level FlightAware UK
Thu 05:54:27 AM 52.7374 -0.6519 332° Northwest 502 578 34,500  Level FlightAware UK
Thu 05:54:56 AM 52.7981 -0.7069 331° Northwest 500 575 34,500  Level FlightAware UK
Thu 05:55:20 AM 52.8469 -0.7515 331° Northwest 504 580 34,500  Level FlightAware UK
Thu 05:55:51 AM 52.9083 -0.8075 331° Northwest 498 573 34,500  Level FlightAware UK
Thu 05:56:26 AM 52.9812 -0.8747 331° Northwest 502 578 34,500  Level FlightAware UK
Thu 05:57:26 AM 53.1036 -0.9871 331° Northwest 506 582 34,500  Level FlightAware UK
Thu 05:58:38 AM 53.2495 -1.1207 331° Northwest 500 575 34,500  Level FlightAware UK
Thu 05:58:56 AM 53.2859 -1.1550 331° Northwest 502 578 34,500  Level FlightAware UK
Thu 05:59:14 AM 53.3224 -1.1892 331° Northwest 502 578 34,500  Level FlightAware UK
Thu 05:59:32 AM 53.3589 -1.2236 331° Northwest 504 580 34,500  Level FlightAware UK
Thu 06:00:02 AM 53.4198 -1.2808 331° Northwest 500 575 34,500  Level FlightAware UK
Thu 06:00:26 AM 53.4678 -1.3267 330° Northwest 500 575 34,500  Level FlightAware UK
Thu 06:01:02 AM 53.5408 -1.3972 330° Northwest 498 573 34,500  Level FlightAware UK
Thu 06:01:26 AM 53.5889 -1.4440 330° Northwest 500 575 34,500  Level FlightAware UK
Thu 06:01:44 AM 53.6254 -1.4798 330° Northwest 502 578 34,500  Level FlightAware UK
Thu 06:02:20 AM 53.6982 -1.5506 330° Northwest 504 580 34,500  Level FlightAware UK
Thu 06:03:14 AM 53.8082 -1.6574 330° Northwest 498 573 34,500  Level FlightAware UK
Thu 06:03:32 AM 53.8442 -1.6933 330° Northwest 502 578 34,500  Level FlightAware UK
Thu 06:03:56 AM 53.8930 -1.7419 330° Northwest 504 580 34,500  Level FlightAware UK
Thu 06:04:44 AM 53.9912 -1.8389 330° Northwest 504 580 34,500  Level FlightAware UK
Thu 06:05:02 AM 54.0279 -1.8751 330° Northwest 502 578 34,500  Level FlightAware UK
Thu 06:05:26 AM 54.0769 -1.9234 330° Northwest 502 578 34,500  Level FlightAware UK
Thu 06:05:55 AM 54.1376 -1.9839 330° Northwest 504 580 34,500  Level FlightAware UK
Thu 06:06:19 AM 54.1866 -2.0338 329° Northwest 500 575 34,500  Level FlightAware UK
Thu 06:06:38 AM 54.2237 -2.0716 329° Northwest 500 575 34,500  Level FlightAware UK
Thu 06:07:02 AM 54.2725 -2.1219 329° Northwest 502 578 34,500  Level FlightAware UK
Thu 06:07:37 AM 54.3454 -2.1971 329° Northwest 504 580 34,500  Level FlightAware UK
Thu 06:08:01 AM 54.3942 -2.2474 329° Northwest 506 582 34,500  Level FlightAware UK
Thu 06:08:25 AM 54.4428 -2.2982 329° Northwest 498 573 34,500  Level FlightAware UK
Thu 06:08:49 AM 54.4914 -2.3489 329° Northwest 504 580 34,500  Level FlightAware UK
Thu 06:09:13 AM 54.5400 -2.4000 329° Northwest 506 582 34,500  Level FlightAware UK
Thu 06:09:43 AM 54.6007 -2.4644 328° Northwest 502 578 34,500  Level FlightAware UK
Thu 06:10:13 AM 54.6610 -2.5282 329° Northwest 504 580 34,500  Level FlightAware UK
Thu 06:10:37 AM 54.7097 -2.5795 329° Northwest 502 578 34,500  Level FlightAware UK
Thu 06:10:55 AM 54.7461 -2.6183 328° Northwest 506 582 34,500  Level FlightAware UK
Thu 06:11:31 AM 54.8215 -2.6881 332° Northwest 508 585 34,500  Level FlightAware UK
Thu 06:11:49 AM 54.8596 -2.7217 333° Northwest 504 580 34,500  Level FlightAware UK
Thu 06:12:07 AM 54.8973 -2.7562 332° Northwest 502 578 34,500  Level FlightAware UK
Thu 06:12:25 AM 54.9347 -2.7913 332° Northwest 502 578 34,500  Level FlightAware UK
Thu 06:12:43 AM 54.9720 -2.8268 331° Northwest 502 578 34,500  Level FlightAware UK
Thu 06:13:01 AM 55.0093 -2.8625 331° Northwest 500 575 34,500  Level FlightAware UK
Thu 06:13:19 AM 55.0463 -2.8975 331° Northwest 500 575 34,500  Level FlightAware UK
Thu 06:14:07 AM 55.1462 -2.9929 331° Northwest 504 580 34,500  Level FlightAware UK
Thu 06:14:25 AM 55.1839 -3.0291 331° Northwest 504 580 34,500  Level FlightAware UK
Thu 06:14:43 AM 55.2216 -3.0653 331° Northwest 502 578 34,500  Level FlightAware UK
Thu 06:15:01 AM 55.2593 -3.1014 331° Northwest 506 582 34,500  Level FlightAware UK
Thu 06:15:19 AM 55.2969 -3.1377 331° Northwest 506 582 34,500  Level FlightAware UK
Thu 06:16:19 AM 55.4220 -3.2590 331° Northwest 508 585 34,500  Level FlightAware UK
Thu 06:17:01 AM 55.5100 -3.3445 331° Northwest 506 582 34,500  Level FlightAware UK
Thu 06:17:19 AM 55.5475 -3.3811 331° Northwest 504 580 34,500  Level FlightAware UK
Thu 06:17:55 AM 55.6223 -3.4545 331° Northwest 504 580 34,500  Level FlightAware UK
Thu 06:18:19 AM 55.6717 -3.5032 331° Northwest 510 587 34,500  Level FlightAware UK
Thu 06:18:49 AM 55.7339 -3.5644 331° Northwest 504 580 34,500  Level FlightAware UK
Thu 06:19:31 AM 55.8205 -3.6504 331° Northwest 504 580 34,500  Level FlightAware UK
Thu 06:19:55 AM 55.8699 -3.6997 331° Northwest 506 582 34,500  Level FlightAware UK
Thu 06:20:49 AM 55.9807 -3.8109 331° Northwest 504 580 34,500  Level FlightAware UK
Thu 06:21:13 AM 56.0299 -3.8602 331° Northwest 504 580 34,500  Level FlightAware UK
Thu 06:21:55 AM 56.1161 -3.9473 331° Northwest 508 585 34,500  Level FlightAware UK
Thu 06:22:19 AM 56.1656 -3.9973 331° Northwest 508 585 34,500  Level FlightAware UK
Thu 06:23:06 AM 56.2638 -4.0972 331° Northwest 502 578 34,500  Level FlightAware UK
Thu 06:23:43 AM 56.3379 -4.1730 330° Northwest 500 575 34,500 -278 Level FlightAware UK
Thu 06:24:54 AM 56.4806 -4.3374 328° Northwest 502 578 34,000 -568 Descending FlightAware UK
Thu 06:25:18 AM 56.5251 -4.4020 321° Northwest 504 580 33,600 -750 Descending FlightAware UK
Thu 06:25:42 AM 56.5698 -4.4639 323° Northwest 498 573 33,400 -143 Descending FlightAware UK
Thu 06:26:00 AM 56.6034 -4.5110 322° Northwest 498 573 33,500  Climbing FlightAware UK
Thu 06:26:24 AM 56.6484 -4.5744 322° Northwest 500 575 33,400  Descending FlightAware UK
Thu 06:27:00 AM 56.7147 -4.6696 322° Northwest 502 578 33,500 111 Climbing FlightAware UK
Thu 06:27:18 AM 56.7479 -4.7171 322° Northwest 496 571 33,500  Level FlightAware UK
Thu 06:27:42 AM 56.7921 -4.7809 322° Northwest 502 578 33,500  Level FlightAware UK
Thu 06:28:06 AM 56.8364 -4.8446 322° Northwest 498 573 33,500  Level FlightAware UK
Thu 06:28:42 AM 56.9027 -4.9403 322° Northwest 494 568 33,500  Level FlightAware UK
Thu 06:29:06 AM 56.9467 -5.0042 322° Northwest 502 578 33,500  Level FlightAware UK
Thu 06:29:24 AM 56.9796 -5.0524 321° Northwest 500 575 33,500  Level FlightAware UK
Thu 06:29:48 AM 57.0237 -5.1165 322° Northwest 500 575 33,500  Level FlightAware UK
Thu 06:30:06 AM 57.0566 -5.1649 321° Northwest 496 571 33,500  Level FlightAware UK
Thu 06:30:30 AM 57.1003 -5.2291 321° Northwest 496 571 33,500  Level FlightAware UK
Thu 06:30:48 AM 57.1332 -5.2775 321° Northwest 502 578 33,500  Level FlightAware UK
Thu 06:31:06 AM 57.1662 -5.3259 322° Northwest 502 578 33,500  Level FlightAware UK
Thu 06:31:24 AM 57.1988 -5.3740 321° Northwest 502 578 33,500  Level FlightAware UK
Thu 06:31:42 AM 57.2316 -5.4229 321° Northwest 502 578 33,500  Level FlightAware UK
Thu 06:32:00 AM 57.2643 -5.4718 321° Northwest 502 578 33,500  Level FlightAware UK
Thu 06:32:18 AM 57.2970 -5.5205 321° Northwest 500 575 33,500  Level FlightAware UK
Thu 06:32:36 AM 57.3298 -5.5692 321° Northwest 496 571 33,500  Level FlightAware UK
Thu 06:33:06 AM 57.3842 -5.6509 321° Northwest 498 573 33,500  Level FlightAware UK
Thu 06:33:30 AM 57.4280 -5.7166 321° Northwest 500 575 33,500  Level FlightAware UK
Thu 06:34:00 AM 57.4828 -5.7990 321° Northwest 500 575 33,500  Level FlightAware UK
Thu 06:34:18 AM 57.5156 -5.8489 321° Northwest 496 571 33,500  Level FlightAware UK
Thu 06:34:36 AM 57.5483 -5.8986 321° Northwest 500 575 33,500  Level FlightAware UK
Thu 06:34:54 AM 57.5811 -5.9484 321° Northwest 496 571 33,500  Level FlightAware UK
Thu 06:35:12 AM 57.6139 -5.9984 321° Northwest 500 575 33,500  Level FlightAware UK
Thu 06:35:30 AM 57.6466 -6.0485 321° Northwest 500 575 33,500  Level FlightAware UK
Thu 06:35:54 AM 57.6903 -6.1152 321° Northwest 500 575 33,500  Level FlightAware UK
Thu 06:36:12 AM 57.7230 -6.1653 321° Northwest 502 578 33,500  Level FlightAware UK
Thu 06:36:30 AM 57.7554 -6.2156 320° Northwest 498 573 33,500  Level FlightAware UK
Thu 06:36:48 AM 57.7879 -6.2657 321° Northwest 498 573 33,500  Level FlightAware UK
Thu 06:37:06 AM 57.8202 -6.3158 320° Northwest 502 578 33,500  Level FlightAware UK
Thu 06:37:24 AM 57.8521 -6.3653 320° Northwest 500 575 33,500  Level FlightAware UK
Thu 06:37:42 AM 57.8843 -6.4154 320° Northwest 496 571 33,500  Level FlightAware UK
Thu 06:38:00 AM 57.9164 -6.4655 320° Northwest 494 568 33,500  Level FlightAware UK
Thu 06:38:18 AM 57.9486 -6.5154 321° Northwest 496 571 33,500  Level FlightAware UK
Thu 06:38:36 AM 57.9806 -6.5656 320° Northwest 494 568 33,500  Level FlightAware UK
Thu 06:39:12 AM 58.0447 -6.6664 320° Northwest 500 575 33,500  Level FlightAware UK
Thu 06:39:30 AM 58.0767 -6.7169 320° Northwest 500 575 33,500  Level FlightAware UK
Thu 06:39:48 AM 58.1087 -6.7673 320° Northwest 498 573 33,500  Level FlightAware UK
Thu 06:40:06 AM 58.1405 -6.8180 320° Northwest 498 573 33,500  Level FlightAware UK
Thu 06:40:24 AM 58.1723 -6.8686 320° Northwest 496 571 33,500  Level FlightAware UK
Thu 06:40:42 AM 58.2040 -6.9190 320° Northwest 494 568 33,500  Level FlightAware UK
Thu 06:41:00 AM 58.2357 -6.9694 320° Northwest 496 571 33,500  Level FlightAware UK
Thu 06:41:30 AM 58.2883 -7.0540 320° Northwest 496 571 33,500 125 Level FlightAware UK
Thu 06:41:48 AM 58.3200 -7.1052 320° Northwest 500 575 33,600 833 Climbing FlightAware UK
Thu 06:42:06 AM 58.3518 -7.1567 320° Northwest 496 571 34,000 1,000 Climbing FlightAware UK
Thu 06:42:24 AM 58.3837 -7.2083 320° Northwest 496 571 34,200 333 Climbing FlightAware UK
Thu 06:42:42 AM 58.4156 -7.2600 320° Northwest 498 573 34,200 500 Level FlightAware UK
Thu 06:43:00 AM 58.4479 -7.3122 320° Northwest 502 578 34,500 500 Climbing FlightAware UK
Thu 06:43:18 AM 58.4802 -7.3644 320° Northwest 500 575 34,500  Level FlightAware UK
Thu 06:43:36 AM 58.5123 -7.4167 320° Northwest 498 573 34,500  Level FlightAware UK
Thu 06:43:54 AM 58.5441 -7.4689 319° Northwest 494 568 34,500  Level FlightAware UK
Thu 06:44:12 AM 58.5759 -7.5208 320° Northwest 498 573 34,500  Level FlightAware UK
Thu 06:44:30 AM 58.6075 -7.5728 319° Northwest 496 571 34,500  Level FlightAware UK
Thu 06:44:48 AM 58.6391 -7.6249 319° Northwest 498 573 34,500  Level FlightAware UK
Thu 06:45:06 AM 58.6706 -7.6770 319° Northwest 496 571 34,500  Level FlightAware UK
Thu 06:45:24 AM 58.7021 -7.7292 319° Northwest 494 568 34,500  Level FlightAware UK
Thu 06:45:42 AM 58.7333 -7.7808 319° Northwest 494 568 34,500  Level FlightAware UK
Thu 06:46:00 AM 58.7647 -7.8330 319° Northwest 494 568 34,500  Level FlightAware UK
Thu 06:46:18 AM 58.7961 -7.8856 319° Northwest 498 573 34,500  Level FlightAware UK
Thu 06:46:36 AM 58.8275 -7.9382 319° Northwest 498 573 34,500  Level FlightAware UK
Thu 06:46:54 AM 58.8589 -7.9908 319° Northwest 494 568 34,500  Level FlightAware UK
Thu 06:47:12 AM 58.8901 -8.0435 319° Northwest 494 568 34,500  Level FlightAware UK
Thu 06:47:30 AM 58.9214 -8.0961 319° Northwest 494 568 34,500  Level FlightAware UK
Thu 06:47:48 AM 58.9526 -8.1487 319° Northwest 498 573 34,500  Level FlightAware UK
Thu 06:48:06 AM 58.9837 -8.2013 319° Northwest 496 571 34,500  Level FlightAware UK
Thu 06:48:24 AM 59.0148 -8.2539 319° Northwest 494 568 34,500  Level FlightAware UK
Thu 06:48:42 AM 59.0458 -8.3066 319° Northwest 492 566 34,500  Level FlightAware UK
Thu 06:49:00 AM 59.0766 -8.3593 319° Northwest 490 564 34,500  Level FlightAware UK
Thu 06:49:18 AM 59.1074 -8.4121 319° Northwest 490 564 34,500  Level FlightAware UK
Thu 06:49:36 AM 59.1383 -8.4650 319° Northwest 490 564 34,500  Level FlightAware UK
Thu 06:49:54 AM 59.1692 -8.5183 318° Northwest 492 566 34,500  Level FlightAware UK
Thu 06:50:12 AM 59.2003 -8.5715 319° Northwest 490 564 34,500  Level FlightAware UK
Thu 06:50:30 AM 59.2314 -8.6252 318° Northwest 490 564 34,500  Level FlightAware UK
Thu 06:50:48 AM 59.2625 -8.6790 319° Northwest 490 564 34,500  Level FlightAware UK
Thu 06:51:06 AM 59.2936 -8.7330 318° Northwest 492 566 34,500  Level FlightAware UK
Thu 06:51:24 AM 59.3247 -8.7870 318° Northwest 490 564 34,500  Level FlightAware UK
Thu 06:51:42 AM 59.3557 -8.8414 318° Northwest 496 571 34,500  Level FlightAware UK
Thu 06:52:00 AM 59.3867 -8.8958 318° Northwest 494 568 34,500  Level FlightAware UK
Thu 06:52:18 AM 59.4176 -8.9503 318° Northwest 492 566 34,500  Level FlightAware UK
Thu 06:52:36 AM 59.4485 -9.0046 318° Northwest 492 566 34,500 22 Level FlightAware UK
Thu 06:54:00 AM 59.5379 -9.2703 304° West  Level Estimated
Thu 07:01:00 AM 60.0101 -10.7254 303° West  Level Estimated
Thu 07:02:00 AM 60.0763 -10.9366 302° West  Level Estimated
Thu 07:03:00 AM 60.1421 -11.1487 302° West  Level Estimated
Thu 07:04:00 AM 60.2075 -11.3616 302° West  Level Estimated
Thu 07:05:00 AM 60.2726 -11.5754 302° West  Level Estimated
Thu 07:06:00 AM 60.3374 -11.7900 301° West  Level Estimated
Thu 07:07:00 AM 60.4018 -12.0055 301° West  Level Estimated
Thu 07:08:00 AM 60.4659 -12.2218 301° West  Level Estimated
Thu 07:09:00 AM 60.5296 -12.4390 301° West  Level Estimated
Thu 07:10:00 AM 60.5930 -12.6570 301° West  Level Estimated
Thu 07:11:00 AM 60.6560 -12.8759 301° West  Level Estimated
Thu 07:12:00 AM 60.7187 -13.0957 300° West  Level Estimated
Thu 07:13:00 AM 60.7809 -13.3163 300° West  Level Estimated
Thu 07:14:00 AM 60.8429 -13.5378 300° West  Level Estimated
Thu 07:15:00 AM 60.9044 -13.7601 300° West  Level Estimated
Thu 07:16:00 AM 60.9656 -13.9832 300° West  Level Estimated
Thu 07:17:00 AM 61.0264 -14.2073 299° West  Level Estimated
Thu 07:18:00 AM 61.0869 -14.4322 299° West  Level Estimated
Thu 07:19:00 AM 61.1470 -14.6579 299° West  Level Estimated
Thu 07:20:00 AM 61.2067 -14.8845 299° West  Level Estimated
Thu 07:21:00 AM 61.2660 -15.1120 299° West  Level Estimated
Thu 07:22:00 AM 61.3249 -15.3403 298° West  Level Estimated
Thu 07:23:00 AM 61.3835 -15.5695 298° West  Level Estimated
Thu 07:24:00 AM 61.4417 -15.7996 298° West  Level Estimated
Thu 07:25:00 AM 61.4994 -16.0305 298° West  Level Estimated
Thu 07:26:00 AM 61.5568 -16.2622 298° West  Level Estimated
Thu 07:27:00 AM 61.6138 -16.4948 297° West  Level Estimated
Thu 07:28:00 AM 61.6704 -16.7283 297° West  Level Estimated
Thu 07:29:00 AM 61.7266 -16.9626 297° West  Level Estimated
Thu 07:30:00 AM 61.7824 -17.1978 297° West  Level Estimated
Thu 07:31:00 AM 61.8378 -17.4338 297° West  Level Estimated
Thu 07:32:00 AM 61.8928 -17.6707 296° West  Level Estimated
Thu 07:33:00 AM 61.9473 -17.9084 296° West  Level Estimated
Thu 07:34:00 AM 62.0015 -18.1470 296° West  Level Estimated
Thu 07:35:00 AM 62.0553 -18.3864 296° West  Level Estimated
Thu 07:36:00 AM 62.1086 -18.6266 295° West  Level Estimated
Thu 07:37:00 AM 62.1615 -18.8678 295° West  Level Estimated
Thu 07:38:00 AM 62.2140 -19.1097 295° West  Level Estimated
Thu 07:39:00 AM 62.2661 -19.3525 295° West  Level Estimated
Thu 07:40:00 AM 62.3178 -19.5961 295° West  Level Estimated
Thu 07:41:00 AM 62.3690 -19.8406 294° West  Level Estimated
Thu 07:42:00 AM 62.4198 -20.0859 294° West  Level Estimated
Thu 07:43:00 AM 62.4701 -20.3320 294° West  Level Estimated
Thu 07:44:00 AM 62.5201 -20.5790 294° West  Level Estimated
Thu 07:45:00 AM 62.5695 -20.8267 294° West  Level Estimated
Thu 07:46:00 AM 62.6186 -21.0753 293° West  Level Estimated
Thu 07:47:00 AM 62.6672 -21.3248 293° West  Level Estimated
Thu 07:48:00 AM 62.7154 -21.5750 293° West  Level Estimated
Thu 07:49:00 AM 62.7631 -21.8260 293° West  Level Estimated
Thu 07:50:00 AM 62.8104 -22.0779 292° West  Level Estimated
Thu 07:51:00 AM 62.8572 -22.3306 292° West  Level Estimated
Thu 07:52:00 AM 62.9035 -22.5840 292° West  Level Estimated
Thu 07:53:00 AM 62.9495 -22.8383 292° West  Level Estimated
Thu 07:54:00 AM 62.9949 -23.0934 292° West  Level Estimated
Thu 07:55:00 AM 63.0399 -23.3492 291° West  Level Estimated
Thu 07:56:00 AM 63.0844 -23.6059 291° West  Level Estimated
Thu 07:57:00 AM 63.1285 -23.8633 291° West  Level Estimated
Thu 07:58:00 AM 63.1721 -24.1215 291° West  Level Estimated
Thu 07:59:00 AM 63.2152 -24.3805 290° West  Level Estimated
Thu 08:00:00 AM 63.2578 -24.6402 290° West  Level Estimated
Thu 08:01:00 AM 63.3000 -24.9007 290° West  Level Estimated
Thu 08:02:00 AM 63.3417 -25.1620 290° West  Level Estimated
Thu 08:03:00 AM 63.3829 -25.4240 289° West  Level Estimated
Thu 08:04:00 AM 63.4237 -25.6868 289° West  Level Estimated
Thu 08:05:00 AM 63.4639 -25.9503 289° West  Level Estimated
Thu 08:06:00 AM 63.5037 -26.2146 289° West  Level Estimated
Thu 08:07:00 AM 63.5430 -26.4795 289° West  Level Estimated
Thu 08:08:00 AM 63.5817 -26.7453 288° West  Level Estimated
Thu 08:09:00 AM 63.6200 -27.0117 288° West  Level Estimated
Thu 08:10:00 AM 63.6578 -27.2788 288° West  Level Estimated
Thu 08:11:00 AM 63.6951 -27.5467 288° West  Level Estimated
Thu 08:12:00 AM 63.7320 -27.8153 287° West  Level Estimated
Thu 08:13:00 AM 63.7683 -28.0845 287° West  Level Estimated
Thu 08:14:00 AM 63.8041 -28.3545 287° West  Level Estimated
Thu 08:15:00 AM 63.8394 -28.6251 287° West  Level Estimated
Thu 08:16:00 AM 63.8742 -28.8964 286° West  Level Estimated
Thu 08:17:00 AM 63.9084 -29.1683 286° West  Level Estimated
Thu 08:18:00 AM 63.9422 -29.4410 286° West  Level Estimated
Thu 08:19:00 AM 63.9755 -29.7143 286° West  Level Estimated
Thu 08:20:00 AM 64.0082 -29.9882 285° West  Level Estimated
Thu 08:21:00 AM 64.0404 -30.2627 285° West  Level Estimated
Thu 08:22:00 AM 64.0721 -30.5379 285° West  Level Estimated
Thu 08:23:00 AM 64.1033 -30.8137 285° West  Level Estimated
Thu 08:24:00 AM 64.1340 -31.0902 284° West  Level Estimated
Thu 08:25:00 AM 64.1641 -31.3672 284° West  Level Estimated
Thu 08:26:00 AM 64.1937 -31.6448 284° West  Level Estimated
Thu 08:27:00 AM 64.2228 -31.9230 284° West  Level Estimated
Thu 08:28:00 AM 64.2514 -32.2018 283° West  Level Estimated
Thu 08:29:00 AM 64.2794 -32.4812 283° West  Level Estimated
Thu 08:30:00 AM 64.3069 -32.7611 283° West  Level Estimated
Thu 08:31:00 AM 64.3338 -33.0416 283° West  Level Estimated
Thu 08:32:00 AM 64.3602 -33.3227 282° West  Level Estimated
Thu 08:33:00 AM 64.3861 -33.6042 282° West  Level Estimated
Thu 08:34:00 AM 64.4114 -33.8863 282° West  Level Estimated
Thu 08:35:00 AM 64.4362 -34.1689 282° West  Level Estimated
Thu 08:36:00 AM 64.4605 -34.4520 281° West  Level Estimated
Thu 08:37:00 AM 64.4842 -34.7356 281° West  Level Estimated
Thu 08:38:00 AM 64.5073 -35.0197 281° West  Level Estimated
Thu 08:39:00 AM 64.5300 -35.3043 281° West  Level Estimated
Thu 08:40:00 AM 64.5520 -35.5894 280° West  Level Estimated
Thu 08:41:00 AM 64.5735 -35.8749 280° West  Level Estimated
Thu 08:42:00 AM 64.5945 -36.1608 280° West  Level Estimated
Thu 08:43:00 AM 64.6149 -36.4472 280° West  Level Estimated
Thu 08:44:00 AM 64.6347 -36.7340 279° West  Level Estimated
Thu 08:45:00 AM 64.6540 -37.0212 279° West  Level Estimated
Thu 08:46:00 AM 64.6728 -37.3088 279° West  Level Estimated
Thu 08:47:00 AM 64.6909 -37.5968 279° West  Level Estimated
Thu 08:48:00 AM 64.7085 -37.8852 278° West  Level Estimated
Thu 08:49:00 AM 64.7256 -38.1739 278° West  Level Estimated
Thu 08:50:00 AM 64.7421 -38.4631 278° West  Level Estimated
Thu 08:51:00 AM 64.7580 -38.7525 277° West  Level Estimated
Thu 08:52:00 AM 64.7734 -39.0423 277° West  Level Estimated
Thu 08:53:00 AM 64.7882 -39.3324 277° West  Level Estimated
Thu 08:54:00 AM 64.8024 -39.6229 277° West  Level Estimated
Thu 08:55:00 AM 64.8160 -39.9136 276° West  Level Estimated
Thu 08:56:00 AM 64.8291 -40.2046 276° West  Level Estimated
Thu 08:57:00 AM 64.8417 -40.4959 276° West  Level Estimated
Thu 08:58:00 AM 64.8536 -40.7875 276° West  Level Estimated
Thu 08:59:00 AM 64.8650 -41.0793 275° West  Level Estimated
Thu 09:00:00 AM 64.8758 -41.3714 275° West  Level Estimated
Thu 09:01:00 AM 64.8860 -41.6637 275° West  Level Estimated
Thu 09:02:00 AM 64.8957 -41.9562 275° West  Level Estimated
Thu 09:03:00 AM 64.9048 -42.2489 274° West  Level Estimated
Thu 09:04:00 AM 64.9133 -42.5418 274° West  Level Estimated
Thu 09:05:00 AM 64.9212 -42.8348 274° West  Level Estimated
Thu 09:06:00 AM 64.9286 -43.1281 274° West  Level Estimated
Thu 09:07:00 AM 64.9354 -43.4215 273° West  Level Estimated
Thu 09:08:00 AM 64.9416 -43.7150 273° West  Level Estimated
Thu 09:09:00 AM 64.9472 -44.0087 273° West  Level Estimated
Thu 09:10:00 AM 64.9523 -44.3025 272° West  Level Estimated
Thu 09:11:00 AM 64.9568 -44.5964 272° West  Level Estimated
Thu 09:12:00 AM 64.9607 -44.8904 272° West  Level Estimated
Thu 09:13:00 AM 64.9640 -45.1845 272° West  Level Estimated
Thu 09:14:00 AM 64.9667 -45.4786 271° West  Level Estimated
Thu 09:15:00 AM 64.9689 -45.7728 271° West  Level Estimated
Thu 09:16:00 AM 64.9705 -46.0670 271° West  Level Estimated
Thu 09:17:00 AM 64.9715 -46.3613 271° West  Level Estimated
Thu 09:18:00 AM 64.9719 -46.6555 270° West  Level Estimated
Thu 09:19:00 AM 64.9717 -46.9498 270° West  Level Estimated
Thu 09:20:00 AM 64.9710 -47.2441 270° West  Level Estimated
Thu 09:21:00 AM 64.9697 -47.5383 270° West  Level Estimated
Thu 09:22:00 AM 64.9678 -47.8325 269° West  Level Estimated
Thu 09:23:00 AM 64.9653 -48.1267 269° West  Level Estimated
Thu 09:24:00 AM 64.9623 -48.4208 269° West  Level Estimated
Thu 09:25:00 AM 64.9586 -48.7148 268° West  Level Estimated
Thu 09:26:00 AM 64.9544 -49.0088 268° West  Level Estimated
Thu 09:27:00 AM 64.9496 -49.3026 268° West  Level Estimated
Thu 09:28:00 AM 64.9443 -49.5963 268° West  Level Estimated
Thu 09:28:38 AM 68.0500 -53.1833 266° West 490 564 38,000  Level Edmonton Center
Thu 09:29:00 AM 64.9383 -49.8899 267° West  Level Estimated
Thu 09:29:38 AM 68.0500 -53.5500 270° West 490 564 38,000  Level Edmonton Center
Thu 09:30:00 AM 64.9318 -50.1834 267° West  Level Estimated
Thu 09:30:38 AM 68.0500 -53.9167 270° West 490 564 38,000  Level Edmonton Center
Thu 09:31:00 AM 64.9247 -50.4767 267° West  Level Estimated
Thu 09:31:38 AM 68.0500 -54.2833 270° West 490 564 38,000  Level Edmonton Center
Thu 09:32:00 AM 64.9170 -50.7699 267° West  Level Estimated
Thu 09:32:38 AM 68.0500 -54.6333 270° West 490 564 38,000  Level Edmonton Center
Thu 09:33:00 AM 64.9088 -51.0629 266° West  Level Estimated
Thu 09:33:38 AM 68.0500 -55.0000 270° West 490 564 38,000  Level Edmonton Center
Thu 09:34:00 AM 64.9000 -51.3557 266° West  Level Estimated
Thu 09:34:38 AM 68.0667 -55.3333 278° West 490 564 38,000  Level Edmonton Center
Thu 09:35:38 AM 68.0667 -55.7167 270° West 490 564 38,000  Level Edmonton Center
Thu 09:36:38 AM 68.0500 -56.0500 263° West 490 564 38,000  Level Edmonton Center
Thu 09:37:38 AM 68.0500 -56.4167 270° West 490 564 38,000  Level Edmonton Center
Thu 09:38:38 AM 68.0500 -56.8000 270° West 490 564 38,000  Level Edmonton Center
Thu 09:39:38 AM 68.0500 -57.1333 270° West 490 564 38,000  Level Edmonton Center
Thu 09:40:38 AM 68.0333 -57.4667 263° West 490 564 38,000  Level Edmonton Center
Thu 09:41:38 AM 68.0333 -57.8500 270° West 490 564 38,000  Level Edmonton Center
Thu 09:42:38 AM 68.0333 -58.2167 270° West 490 564 38,000  Level Edmonton Center
Thu 09:43:38 AM 68.0167 -58.5500 263° West 490 564 38,000  Level Edmonton Center
Thu 09:44:38 AM 68.0000 -58.9333 264° West 490 564 38,000  Level Edmonton Center
Thu 09:45:38 AM 68.0167 -59.2667 278° West 490 564 38,000  Level Edmonton Center
Thu 09:46:38 AM 68.0000 -59.6333 263° West 490 564 38,000  Level Edmonton Center
Thu 09:47:38 AM 67.9833 -59.9833 263° West 490 564 38,000  Level Edmonton Center
Thu 09:48:38 AM 67.9667 -60.3500 263° West 490 564 38,000  Level Edmonton Center
Thu 09:49:38 AM 67.9500 -60.6833 263° West 490 564 38,000  Level Edmonton Center
Thu 09:50:38 AM 67.9333 -61.0500 263° West 490 564 38,000  Level Edmonton Center
Thu 09:51:38 AM 67.9333 -61.4000 270° West 490 564 38,000  Level Edmonton Center
Thu 09:52:38 AM 67.9167 -61.7667 263° West 490 564 38,000  Level Edmonton Center
Thu 09:53:38 AM 67.9167 -62.1333 270° West 490 564 38,000  Level Edmonton Center
Thu 09:54:38 AM 67.9000 -62.4833 263° West 490 564 38,000  Level Edmonton Center
Thu 09:55:38 AM 67.9000 -62.8500 270° West 490 564 38,000  Level Edmonton Center
Thu 09:56:38 AM 67.8833 -63.1833 263° West 490 564 38,000  Level Edmonton Center
Thu 09:57:38 AM 67.8667 -63.5667 264° West 490 564 38,000  Level Edmonton Center
Thu 09:58:38 AM 67.8500 -63.9000 263° West 480 552 38,000  Level Edmonton Center
Thu 09:59:38 AM 67.8333 -64.2333 263° West 480 552 38,000  Level Edmonton Center
Thu 10:00:38 AM 67.8167 -64.6000 263° West 480 552 38,000  Level Edmonton Center
Thu 10:01:38 AM 67.8167 -64.9500 270° West 480 552 38,000  Level Edmonton Center
Thu 10:02:38 AM 67.7833 -65.3167 257° West 480 552 38,000  Level Edmonton Center
Thu 10:03:38 AM 67.7833 -65.6500 270° West 480 552 38,000  Level Edmonton Center
Thu 10:04:38 AM 67.7500 -66.0167 257° West 490 564 38,000  Level Edmonton Center
Thu 10:05:38 AM 67.7333 -66.3833 263° West 490 564 38,000  Level Edmonton Center
Thu 10:06:38 AM 67.7000 -66.7167 255° West 490 564 38,000  Level Edmonton Center
Thu 10:07:38 AM 67.6833 -67.0500 263° West 490 564 38,000  Level Edmonton Center
Thu 10:08:38 AM 67.6667 -67.4167 263° West 490 564 38,000  Level Edmonton Center
Thu 10:09:38 AM 67.6500 -67.7500 263° West 490 564 38,000  Level Edmonton Center
Thu 10:10:38 AM 67.6167 -68.1167 257° West 490 564 38,000  Level Edmonton Center
Thu 10:11:38 AM 67.5833 -68.4667 256° West 490 564 38,000  Level Edmonton Center
Thu 10:12:38 AM 67.5667 -68.8167 263° West 490 564 38,000  Level Edmonton Center
Thu 10:13:38 AM 67.5500 -69.1667 263° West 490 564 38,000  Level Edmonton Center
Thu 10:14:38 AM 67.5167 -69.5333 257° West 480 552 38,000  Level Edmonton Center
Thu 10:15:38 AM 67.4833 -69.8333 254° West 490 564 38,000  Level Edmonton Center
Thu 10:16:38 AM 67.4333 -70.1667 249° West 480 552 38,000  Level Edmonton Center
Thu 10:17:38 AM 67.3833 -70.5000 249° West 480 552 38,000  Level Edmonton Center
Thu 10:18:38 AM 67.3167 -70.8000 240° Southwest 480 552 38,000  Level Edmonton Center
Thu 10:19:38 AM 67.2833 -71.1167 255° West 480 552 38,000  Level Edmonton Center
Thu 10:20:38 AM 67.2167 -71.4500 243° Southwest 480 552 38,000  Level Edmonton Center
Thu 10:21:38 AM 67.1833 -71.7667 255° West 480 552 38,000  Level Edmonton Center
Thu 10:22:38 AM 67.1167 -72.1000 243° Southwest 480 552 38,000  Level Edmonton Center
Thu 10:23:38 AM 67.0667 -72.3833 246° West 480 552 38,000  Level Edmonton Center
Thu 10:24:38 AM 67.0000 -72.7000 242° Southwest 480 552 38,000  Level Edmonton Center
Thu 10:25:38 AM 66.9500 -73.0167 248° West 480 552 38,000  Level Edmonton Center
Thu 10:26:38 AM 66.9000 -73.3500 249° West 480 552 38,000  Level Edmonton Center
Thu 10:27:38 AM 66.8333 -73.6167 238° Southwest 480 552 38,000  Level Edmonton Center
Thu 10:28:38 AM 66.7833 -73.9167 247° West 480 552 38,000  Level Edmonton Center
Thu 10:29:38 AM 66.7333 -74.1833 245° Southwest 480 552 38,000  Level Edmonton Center
Thu 10:30:38 AM 66.6667 -74.5500 245° Southwest 480 552 38,000  Level Edmonton Center
Thu 10:31:38 AM 66.6167 -74.8167 245° Southwest 480 552 38,000  Level Edmonton Center
Thu 10:32:38 AM 66.5500 -75.1333 242° Southwest 480 552 38,000  Level Edmonton Center
Thu 10:33:38 AM 66.4833 -75.4500 242° Southwest 480 552 38,000  Level Edmonton Center
Thu 10:34:38 AM 66.4333 -75.7500 247° West 480 552 38,000  Level Edmonton Center
Thu 10:35:38 AM 66.3667 -76.0167 238° Southwest 480 552 38,000  Level Edmonton Center
Thu 10:36:38 AM 66.3000 -76.3333 242° Southwest 480 552 38,000  Level Edmonton Center
Thu 10:38:18 AM 66.1833 -76.8333 240° Southwest 480 552 38,000  Level Edmonton Center
Thu 10:39:18 AM 66.1333 -77.1167 247° West 480 552 38,000  Level Edmonton Center
Thu 10:40:18 AM 66.0667 -77.4333 243° Southwest 480 552 38,000  Level Edmonton Center
Thu 10:41:18 AM 66.0000 -77.7167 240° Southwest 480 552 38,000  Level Edmonton Center
Thu 10:42:18 AM 65.9333 -77.9833 239° Southwest 480 552 38,000  Level Edmonton Center
Thu 10:43:18 AM 65.8667 -78.2667 240° Southwest 480 552 38,000  Level Edmonton Center
Thu 10:44:18 AM 65.8167 -78.5667 248° West 480 552 38,000  Level Edmonton Center
Thu 10:45:18 AM 65.7333 -78.8667 236° Southwest 480 552 38,000  Level Edmonton Center
Thu 10:46:18 AM 65.6667 -79.1000 235° Southwest 480 552 38,000  Level Edmonton Center
Thu 10:47:18 AM 65.6000 -79.4000 242° Southwest 480 552 38,000  Level Edmonton Center
Thu 10:48:18 AM 65.5333 -79.6833 240° Southwest 480 552 38,000  Level Edmonton Center
Thu 10:49:18 AM 65.4500 -79.9500 233° Southwest 480 552 38,000  Level Edmonton Center
Thu 10:50:18 AM 65.3667 -80.2000 231° Southwest 480 552 38,000  Level Edmonton Center
Thu 10:51:18 AM 65.2833 -80.4167 227° Southwest 480 552 38,000  Level Edmonton Center
Thu 10:52:18 AM 65.1833 -80.6500 224° Southwest 480 552 38,000  Level Edmonton Center
Thu 10:53:18 AM 65.0833 -80.9000 227° Southwest 480 552 38,000  Level Edmonton Center
Thu 10:54:18 AM 65.0000 -81.1167 228° Southwest 480 552 38,000  Level Edmonton Center
Thu 10:55:18 AM 64.9000 -81.3667 227° Southwest 480 552 38,000  Level Edmonton Center
Thu 10:56:18 AM 64.8000 -81.5833 223° Southwest 480 552 38,000  Level Edmonton Center
Thu 10:57:18 AM 64.7167 -81.8333 232° Southwest 480 552 38,000  Level Edmonton Center
Thu 10:58:18 AM 64.6333 -82.0333 226° Southwest 480 552 38,000  Level Edmonton Center
Thu 10:59:18 AM 64.5333 -82.2833 227° Southwest 480 552 38,000  Level Edmonton Center
Thu 11:00:18 AM 64.4333 -82.5000 223° Southwest 480 552 38,000  Level Edmonton Center
Thu 11:01:18 AM 64.3333 -82.7000 221° Southwest 480 552 38,000  Level Edmonton Center
Thu 11:02:18 AM 64.2500 -82.9333 231° Southwest 480 552 38,000  Level Edmonton Center
Thu 11:03:18 AM 64.1500 -83.1333 221° Southwest 480 552 38,000  Level Edmonton Center
Thu 11:04:18 AM 64.0833 -83.3833 239° Southwest 470 541 38,000  Level Edmonton Center
Thu 11:05:18 AM 64.0500 -83.6667 255° West 470 541 38,000  Level Edmonton Center
Thu 11:06:18 AM 63.9667 -83.9333 235° Southwest 470 541 38,000  Level Edmonton Center
Thu 11:07:18 AM 63.9167 -84.2167 248° West 470 541 38,000  Level Edmonton Center
Thu 11:08:18 AM 63.8500 -84.4667 239° Southwest 470 541 38,000  Level Edmonton Center
Thu 11:09:18 AM 63.8000 -84.7500 248° West 470 541 38,000  Level Edmonton Center
Thu 11:10:18 AM 63.7167 -85.0000 233° Southwest 470 541 38,000  Level Edmonton Center
Thu 11:11:18 AM 63.6667 -85.2333 244° Southwest 470 541 38,000  Level Edmonton Center
Thu 11:12:18 AM 63.6000 -85.5167 242° Southwest 470 541 38,000  Level Edmonton Center
Thu 11:13:18 AM 63.5500 -85.7667 246° West 470 541 38,000  Level Edmonton Center
Thu 11:14:18 AM 63.4833 -86.0500 242° Southwest 470 541 38,000  Level Edmonton Center
Thu 11:15:18 AM 63.4000 -86.2833 231° Southwest 470 541 38,000  Level Edmonton Center
Thu 11:16:18 AM 63.3500 -86.5500 247° West 470 541 38,000  Level Edmonton Center
Thu 11:17:18 AM 63.2833 -86.8000 239° Southwest 470 541 38,000  Level Edmonton Center
Thu 11:18:18 AM 63.2167 -87.0833 243° Southwest 470 541 38,000  Level Edmonton Center
Thu 11:19:18 AM 63.1333 -87.3167 232° Southwest 470 541 38,000  Level Edmonton Center
Thu 11:20:18 AM 63.0833 -87.5833 248° West 470 541 38,000  Level Edmonton Center
Thu 11:21:18 AM 63.0000 -87.8167 232° Southwest 470 541 38,000  Level Edmonton Center
Thu 11:22:18 AM 62.9333 -88.1000 243° Southwest 470 541 38,000  Level Edmonton Center
Thu 11:23:18 AM 62.8667 -88.3167 236° Southwest 470 541 38,000  Level Edmonton Center
Thu 11:24:18 AM 62.8000 -88.6000 243° Southwest 470 541 38,000  Level Edmonton Center
Thu 11:25:18 AM 62.7333 -88.8167 236° Southwest 470 541 38,000  Level Edmonton Center
Thu 11:26:18 AM 62.6667 -89.0833 242° Southwest 470 541 38,000  Level Edmonton Center
Thu 11:27:18 AM 62.6000 -89.3000 236° Southwest 470 541 38,000  Level Edmonton Center
Thu 11:28:18 AM 62.5333 -89.5333 238° Southwest 470 541 38,000  Level Edmonton Center
Thu 11:29:18 AM 62.4667 -89.7500 236° Southwest 470 541 38,000  Level Edmonton Center
Thu 11:30:18 AM 62.3667 -90.0000 229° Southwest 470 541 38,000  Level Edmonton Center
Thu 11:31:18 AM 62.2667 -90.2000 223° Southwest 480 552 38,000  Level Edmonton Center
Thu 11:32:18 AM 62.1667 -90.3833 221° Southwest 480 552 38,000  Level Edmonton Center
Thu 11:33:18 AM 62.0667 -90.5500 218° Southwest 480 552 38,000  Level Edmonton Center
Thu 11:34:18 AM 61.9667 -90.7500 223° Southwest 480 552 38,000  Level Edmonton Center
Thu 11:35:18 AM 61.8667 -90.9500 223° Southwest 470 541 38,000  Level Edmonton Center
Thu 11:36:18 AM 61.7833 -91.1333 226° Southwest 470 541 38,000  Level Edmonton Center
Thu 11:37:18 AM 61.6667 -91.3167 217° Southwest 470 541 38,000  Level Edmonton Center
Thu 11:38:18 AM 61.5667 -91.4667 216° Southwest 480 552 38,000  Level Edmonton Center
Thu 11:39:18 AM 61.4667 -91.6667 224° Southwest 480 552 38,000  Level Edmonton Center
Thu 11:40:18 AM 61.3500 -91.8667 219° Southwest 480 552 38,000  Level Edmonton Center
Thu 11:41:18 AM 61.2500 -92.0500 221° Southwest 480 552 38,000  Level Edmonton Center
Thu 11:42:18 AM 61.1333 -92.2000 212° Southwest 480 552 38,000  Level Edmonton Center
Thu 11:43:18 AM 61.0333 -92.3833 222° Southwest 480 552 38,000  Level Edmonton Center
Thu 11:44:18 AM 60.9333 -92.5667 222° Southwest 480 552 38,000  Level Edmonton Center
Thu 11:45:18 AM 60.8333 -92.7500 222° Southwest 480 552 38,000  Level Edmonton Center
Thu 11:46:18 AM 60.7333 -92.9333 222° Southwest 480 552 38,000  Level Edmonton Center
Thu 11:47:18 AM 60.6167 -93.1000 215° Southwest 480 552 38,000  Level Edmonton Center
Thu 11:48:18 AM 60.5167 -93.2500 216° Southwest 480 552 38,000  Level Edmonton Center
Thu 11:49:18 AM 60.4167 -93.4333 222° Southwest 480 552 38,000  Level Edmonton Center
Thu 11:50:18 AM 60.3000 -93.6000 215° Southwest 480 552 38,000  Level Edmonton Center
Thu 11:51:18 AM 60.2000 -93.7833 222° Southwest 470 541 38,000  Level Edmonton Center
Thu 11:52:18 AM 60.0833 -93.9167 210° Southwest 470 541 38,000  Level Edmonton Center
Thu 11:53:18 AM 59.9833 -94.1000 223° Southwest 480 552 38,000  Level Edmonton Center
Thu 11:54:18 AM 59.8833 -94.2667 220° Southwest 480 552 38,000  Level Edmonton Center
Thu 11:55:18 AM 59.7667 -94.4333 216° Southwest 480 552 38,000  Level Edmonton Center
Thu 11:56:18 AM 59.6667 -94.6000 220° Southwest 470 541 38,000  Level Edmonton Center
Thu 11:57:18 AM 59.5500 -94.7500 213° Southwest 480 552 38,000  Level Edmonton Center
Thu 11:58:18 AM 59.4500 -94.9167 220° Southwest 480 552 38,000  Level Edmonton Center
Thu 11:59:18 AM 59.3500 -95.0833 220° Southwest 480 552 38,000  Level Edmonton Center
Thu 12:00:18 PM 59.2333 -95.2500 216° Southwest 480 552 38,000  Level Edmonton Center
Thu 12:01:18 PM 59.1333 -95.4000 218° Southwest 480 552 38,000  Level Edmonton Center
Thu 12:02:18 PM 59.0167 -95.5333 210° Southwest 480 552 38,000  Level Edmonton Center
Thu 12:03:18 PM 58.9167 -95.7000 221° Southwest 480 552 38,000  Level Edmonton Center
Thu 12:04:18 PM 58.8000 -95.8667 217° Southwest 480 552 38,000  Level Edmonton Center
Thu 12:05:18 PM 58.7000 -96.0167 218° Southwest 480 552 38,000  Level Edmonton Center
Thu 12:06:18 PM 58.5833 -96.1833 217° Southwest 480 552 38,000  Level Edmonton Center
Thu 12:07:18 PM 58.4667 -96.3000 208° Southwest 480 552 38,000  Level Edmonton Center
Thu 12:08:18 PM 58.3667 -96.4667 221° Southwest 480 552 38,000  Level Edmonton Center
Thu 12:09:18 PM 58.2500 -96.6167 214° Southwest 480 552 38,000  Level Edmonton Center
Thu 12:10:18 PM 58.1500 -96.7833 221° Southwest 480 552 38,000  Level Edmonton Center
Thu 12:11:18 PM 58.0333 -96.9333 214° Southwest 480 552 38,000  Level Edmonton Center
Thu 12:12:18 PM 57.9333 -97.0500 212° Southwest 480 552 38,000  Level Edmonton Center
Thu 12:13:18 PM 57.8167 -97.2000 214° Southwest 480 552 38,000  Level Edmonton Center
Thu 12:14:18 PM 57.7000 -97.3500 215° Southwest 480 552 38,000  Level Edmonton Center
Thu 12:15:18 PM 57.6000 -97.5167 222° Southwest 480 552 38,000  Level Edmonton Center
Thu 12:16:18 PM 57.4833 -97.6667 215° Southwest 480 552 38,000  Level Edmonton Center
Thu 12:17:18 PM 57.3667 -97.7833 208° Southwest 480 552 38,000  Level Edmonton Center
Thu 12:18:18 PM 57.2667 -97.9167 216° Southwest 480 552 38,000  Level Edmonton Center
Thu 12:19:18 PM 57.1500 -98.0667 215° Southwest 480 552 38,000  Level Edmonton Center
Thu 12:20:18 PM 57.0333 -98.2167 215° Southwest 480 552 38,000  Level Edmonton Center
Thu 12:21:18 PM 56.9333 -98.3667 219° Southwest 480 552 38,000 300 Level Edmonton Center
Thu 12:22:18 PM 56.8167 -98.4833 209° Southwest 480 552 38,600 667 Climbing Edmonton Center
Thu 12:24:18 PM 56.6000 -98.7667 216° Southwest 480 552 40,000 350 Climbing Edmonton Center
Thu 12:26:18 PM 56.3667 -99.0500 214° Southwest 480 552 40,000  Level Edmonton Center
Thu 12:27:18 PM 56.2500 -99.1833 212° Southwest 480 552 40,000  Level Edmonton Center
Thu 12:28:18 PM 56.1500 -99.3000 213° Southwest 480 552 40,000  Level Edmonton Center
Thu 12:30:18 PM 55.9167 -99.5667 213° Southwest 480 552 40,000  Level Edmonton Center
Thu 12:31:18 PM 55.8000 -99.7167 216° Southwest 480 552 40,000  Level Edmonton Center
Thu 12:32:18 PM 55.7000 -99.8500 217° Southwest 480 552 40,000  Level Edmonton Center
Thu 12:33:18 PM 55.5833 -99.9833 213° Southwest 480 552 40,000  Level Edmonton Center
Thu 12:34:18 PM 55.4667 -100.0833 206° Southwest 480 552 40,000  Level Edmonton Center
Thu 12:35:18 PM 55.3500 -100.2167 213° Southwest 480 552 40,000  Level Edmonton Center
Thu 12:36:18 PM 55.2333 -100.3500 213° Southwest 480 552 40,000  Level Edmonton Center
Thu 12:37:18 PM 55.1167 -100.4833 213° Southwest 480 552 40,000  Level Edmonton Center
Thu 12:38:18 PM 55.0167 -100.5833 210° Southwest 480 552 40,000  Level Edmonton Center
Thu 12:39:18 PM 54.9000 -100.7500 219° Southwest 480 552 40,000  Level Edmonton Center
Thu 12:40:18 PM 54.7833 -100.8500 206° Southwest 480 552 40,000  Level Edmonton Center
Thu 12:41:18 PM 54.6667 -100.9833 213° Southwest 480 552 40,000  Level Edmonton Center
Thu 12:42:18 PM 54.5500 -101.1000 210° Southwest 480 552 40,000  Level Edmonton Center
Thu 12:43:18 PM 54.4333 -101.2333 214° Southwest 480 552 40,000  Level Edmonton Center
Thu 12:44:18 PM 54.3167 -101.3667 214° Southwest 480 552 40,000  Level Edmonton Center
Thu 12:45:18 PM 54.2167 -101.4667 210° Southwest 480 552 40,000  Level Edmonton Center
Thu 12:46:18 PM 54.1000 -101.5833 210° Southwest 480 552 40,000  Level Edmonton Center
Thu 12:47:18 PM 53.9833 -101.7167 214° Southwest 480 552 40,000  Level Edmonton Center
Thu 12:48:18 PM 53.8667 -101.8333 211° Southwest 480 552 40,000  Level Edmonton Center
Thu 12:49:18 PM 53.7500 -101.9500 211° Southwest 470 541 40,000  Level Edmonton Center
Thu 12:50:18 PM 53.6333 -102.0833 214° Southwest 480 552 40,000  Level Edmonton Center
Thu 12:51:18 PM 53.5167 -102.1667 203° Southwest 490 564 40,000  Level Edmonton Center
Thu 12:52:18 PM 53.4000 -102.3000 214° Southwest 480 552 40,000  Level Edmonton Center
Thu 12:53:18 PM 53.2833 -102.4167 211° Southwest 490 564 40,000  Level Edmonton Center
Thu 12:54:18 PM 53.1500 -102.5333 208° Southwest 490 564 40,000  Level Edmonton Center
Thu 12:55:18 PM 53.0333 -102.6500 211° Southwest 500 575 40,000  Level Edmonton Center
Thu 12:56:18 PM 52.9167 -102.7833 215° Southwest 480 552 40,000  Level Edmonton Center
Thu 12:57:18 PM 52.8000 -102.9000 211° Southwest 490 564 40,000  Level Edmonton Center
Thu 12:58:18 PM 52.6833 -103.0167 211° Southwest 480 552 40,000  Level Edmonton Center
Thu 12:59:18 PM 52.5667 -103.1333 211° Southwest 480 552 40,000  Level Edmonton Center
Thu 01:00:18 PM 52.4500 -103.2167 204° Southwest 470 541 40,000  Level Edmonton Center
Thu 01:01:18 PM 52.3333 -103.3333 211° Southwest 480 552 40,000  Level Edmonton Center
Thu 01:07:17 PM 51.7060 -103.9660 211° Southwest 485 558 40,000  Level FlightAware ADS-B
Thu 01:08:07 PM 51.5910 -104.0710 210° Southwest 487 560 40,000  Level FlightAware ADS-B
Thu 01:08:47 PM 51.5210 -104.1340 209° Southwest 488 562 40,000  Level FlightAware ADS-B
Thu 01:09:22 PM 51.4570 -104.1920 209° Southwest 489 563 40,000  Level FlightAware ADS-B
Thu 01:10:12 PM 51.3480 -104.2890 209° Southwest 490 564 40,000  Level FlightAware ADS-B
Thu 01:10:47 PM 51.2750 -104.3550 209° Southwest 489 563 40,000  Level FlightAware ADS-B
Thu 01:11:32 PM 51.1930 -104.4290 209° Southwest 490 564 40,000  Level FlightAware ADS-B
Thu 01:12:17 PM 51.1040 -104.5080 209° Southwest 493 567 40,000  Level FlightAware ADS-B
Thu 01:13:07 PM 50.9940 -104.6050 209° Southwest 495 570 40,000  Level FlightAware ADS-B
Thu 01:13:52 PM 50.9120 -104.6770 209° Southwest 494 568 40,000  Level FlightAware ADS-B
Thu 01:14:32 PM 50.8370 -104.7430 209° Southwest 493 567 40,000  Level FlightAware ADS-B
Thu 01:15:17 PM 50.7460 -104.8220 209° Southwest 493 567 40,000  Level FlightAware ADS-B
Thu 01:16:02 PM 50.6560 -104.9000 209° Southwest 494 568 40,000  Level FlightAware ADS-B
Thu 01:16:37 PM 50.5890 -104.9580 209° Southwest 493 567 40,000  Level FlightAware ADS-B
Thu 01:17:22 PM 50.5030 -105.0310 208° Southwest 492 566 40,000  Level FlightAware ADS-B
Thu 01:18:02 PM 50.4160 -105.1050 208° Southwest 491 565 40,000  Level FlightAware ADS-B
Thu 01:18:42 PM 50.3390 -105.1690 208° Southwest 494 568 40,000  Level FlightAware ADS-B
Thu 01:19:32 PM 50.2380 -105.2550 209° Southwest 497 572 40,000  Level FlightAware ADS-B
Thu 01:20:12 PM 50.1590 -105.3210 208° Southwest 497 572 40,000  Level FlightAware ADS-B
Thu 01:20:47 PM 50.0940 -105.3750 208° Southwest 495 570 40,000  Level FlightAware ADS-B
Thu 01:21:37 PM 49.9920 -105.4600 208° Southwest 492 566 40,000  Level FlightAware ADS-B
Thu 01:22:22 PM 49.9020 -105.5350 208° Southwest 491 565 40,000  Level FlightAware ADS-B
Thu 01:22:57 PM 49.8210 -105.6010 208° Southwest 492 566 40,000  Level FlightAware ADS-B
Thu 01:23:42 PM 49.7460 -105.6630 208° Southwest 492 566 40,000  Level FlightAware ADS-B
Thu 01:24:37 PM 49.6330 -105.7560 208° Southwest 492 566 40,000  Level FlightAware ADS-B
Thu 01:25:22 PM 49.5330 -105.8370 208° Southwest 493 567 40,000  Level FlightAware ADS-B
Thu 01:25:57 PM 49.4650 -105.8920 208° Southwest 493 567 40,000  Level FlightAware ADS-B
Thu 01:26:42 PM 49.3820 -105.9590 208° Southwest 492 566 40,000  Level FlightAware ADS-B
Thu 01:27:22 PM 49.2980 -106.0270 208° Southwest 491 565 40,000  Level FlightAware ADS-B
Thu 01:28:22 PM 49.1840 -106.1180 208° Southwest 494 568 40,000  Level FlightAware ADS-B
Thu 01:29:07 PM 49.0850 -106.1970 208° Southwest 496 571 40,000  Level FlightAware ADS-B
Thu 01:29:42 PM 49.0120 -106.2550 208° Southwest 496 571 40,000  Level FlightAware ADS-B
Thu 01:30:27 PM 48.9360 -106.3150 207° Southwest 496 571 40,000  Level FlightAware ADS-B
Thu 01:30:57 PM 48.8830 -106.3550 206° Southwest 496 571 40,000  Level FlightAware ADS-B
Thu 01:31:37 PM 48.8140 -106.4090 207° Southwest 496 571 40,000  Level FlightAware ADS-B
Thu 01:32:17 PM 48.7440 -106.4630 207° Southwest 496 571 40,000  Level FlightAware ADS-B
Thu 01:32:57 PM 48.6750 -106.5160 207° Southwest 496 571 40,000  Level FlightAware ADS-B
Thu 01:33:37 PM 48.6050 -106.5700 207° Southwest 496 571 40,000  Level FlightAware ADS-B
Thu 01:34:27 PM 48.5180 -106.6370 207° Southwest 496 571 40,000  Level FlightAware ADS-B
Thu 01:35:07 PM 48.4490 -106.6900 207° Southwest 496 571 40,000  Level FlightAware ADS-B
Thu 01:35:47 PM 48.3790 -106.7430 207° Southwest 496 571 40,000  Level FlightAware ADS-B
Thu 01:36:37 PM 48.2920 -106.8100 207° Southwest 496 571 40,000  Level FlightAware ADS-B
Thu 01:37:17 PM 48.2230 -106.8630 207° Southwest 496 571 40,000  Level FlightAware ADS-B
Thu 01:37:57 PM 48.1530 -106.9160 207° Southwest 496 571 40,000  Level FlightAware ADS-B
Thu 01:38:37 PM 48.0840 -106.9690 207° Southwest 496 571 40,000  Level FlightAware ADS-B
Thu 01:39:17 PM 48.0140 -107.0220 207° Southwest 496 571 40,000  Level FlightAware ADS-B
Thu 01:39:43 PM 47.7664 -107.2186 207° Southwest 496 571 40,000  Level Salt Lake Center
Thu 01:40:45 PM 47.6442 -107.3089 206° Southwest 494 568 40,000  Level Salt Lake Center
Thu 01:41:47 PM 47.5217 -107.3997 207° Southwest 494 568 40,000  Level Salt Lake Center
Thu 01:42:49 PM 47.3922 -107.4975 207° Southwest 492 566 40,000  Level Salt Lake Center
Thu 01:43:51 PM 47.2528 -107.5983 206° Southwest 499 574 40,000  Level Salt Lake Center
Thu 01:44:53 PM 47.1353 -107.6847 207° Southwest 495 570 40,000  Level Salt Lake Center
Thu 01:45:55 PM 46.9967 -107.7847 206° Southwest 496 571 40,000  Level Salt Lake Center
Thu 01:46:56 PM 46.8781 -107.8731 207° Southwest 499 574 40,000  Level Salt Lake Center
Thu 01:47:58 PM 46.7381 -107.9736 206° Southwest 502 578 40,000  Level Salt Lake Center
Thu 01:49:00 PM 46.6189 -108.0539 205° Southwest 496 571 40,000  Level Salt Lake Center
Thu 01:50:02 PM 46.4819 -108.1528 206° Southwest 493 567 40,000  Level Salt Lake Center
Thu 01:51:04 PM 46.3644 -108.2356 206° Southwest 492 566 40,000  Level Salt Lake Center
Thu 01:52:06 PM 46.2269 -108.3331 206° Southwest 494 568 40,000  Level Salt Lake Center
Thu 01:53:08 PM 46.1081 -108.4161 206° Southwest 497 572 40,000  Level Salt Lake Center
Thu 01:54:10 PM 45.9700 -108.5136 206° Southwest 496 571 40,000  Level Salt Lake Center
Thu 01:55:12 PM 45.8519 -108.5981 206° Southwest 496 571 40,000  Level Salt Lake Center
Thu 01:56:14 PM 45.7308 -108.6822 206° Southwest 503 579 40,000  Level Salt Lake Center
Thu 01:57:16 PM 45.5964 -108.7836 208° Southwest 492 566 40,000  Level Salt Lake Center
Thu 01:58:18 PM 45.4794 -108.8697 207° Southwest 496 571 40,000  Level Salt Lake Center
Thu 01:59:20 PM 45.3442 -108.9694 207° Southwest 493 567 40,000  Level Salt Lake Center
Thu 02:00:22 PM 45.2264 -109.0544 207° Southwest 497 572 40,000  Level Salt Lake Center
Thu 02:01:24 PM 45.0897 -109.1539 207° Southwest 496 571 40,000  Level Salt Lake Center
Thu 02:02:26 PM 44.9750 -109.2364 207° Southwest 487 560 40,000  Level Salt Lake Center
Thu 02:03:28 PM 44.8369 -109.3347 207° Southwest 495 570 40,000  Level Salt Lake Center
Thu 02:04:30 PM 44.7194 -109.4189 207° Southwest 495 570 40,000  Level Salt Lake Center
Thu 02:05:32 PM 44.5819 -109.5156 207° Southwest 495 570 40,000  Level Salt Lake Center
Thu 02:06:34 PM 44.4636 -109.6014 207° Southwest 489 563 40,000  Level Salt Lake Center
Thu 02:07:35 PM 44.3328 -109.6931 207° Southwest 487 560 40,000  Level Salt Lake Center
Thu 02:08:37 PM 44.2117 -109.7778 207° Southwest 487 560 40,000  Level Salt Lake Center
Thu 02:09:39 PM 44.0947 -109.8583 206° Southwest 489 563 40,000  Level Salt Lake Center
Thu 02:10:41 PM 43.9578 -109.9525 206° Southwest 490 564 40,000  Level Salt Lake Center
Thu 02:11:43 PM 43.8403 -110.0331 206° Southwest 490 564 40,000  Level Salt Lake Center
Thu 02:12:45 PM 43.7036 -110.1269 206° Southwest 493 567 40,000  Level Salt Lake Center
Thu 02:13:46 PM 43.5878 -110.2069 207° Southwest 487 560 40,000  Level Salt Lake Center
Thu 02:14:48 PM 43.4522 -110.2975 206° Southwest 490 564 40,000  Level Salt Lake Center
Thu 02:15:50 PM 43.3350 -110.3769 206° Southwest 492 566 40,000  Level Salt Lake Center
Thu 02:16:52 PM 43.2133 -110.4589 206° Southwest 496 571 40,000  Level Salt Lake Center
Thu 02:17:54 PM 43.0775 -110.5519 207° Southwest 490 564 40,000  Level Salt Lake Center
Thu 02:18:56 PM 42.9597 -110.6294 206° Southwest 489 563 40,000  Level Salt Lake Center
Thu 02:19:57 PM 42.8222 -110.7211 206° Southwest 492 566 40,000  Level Salt Lake Center
Thu 02:20:59 PM 42.7125 -110.7936 206° Southwest 483 556 40,000  Level Salt Lake Center
Thu 02:22:01 PM 42.5764 -110.8831 206° Southwest 488 562 40,000  Level Salt Lake Center
Thu 02:23:03 PM 42.4603 -110.9600 206° Southwest 489 563 40,000  Level Salt Lake Center
Thu 02:24:05 PM 42.3364 -111.0400 206° Southwest 493 567 40,000  Level Salt Lake Center
Thu 02:25:07 PM 42.2111 -111.1217 206° Southwest 499 574 40,000  Level Salt Lake Center
Thu 02:26:09 PM 42.0600 -111.2194 206° Southwest 503 579 40,000  Level Salt Lake Center
Thu 02:27:10 PM 41.9344 -111.2994 205° Southwest 500 575 40,000  Level Salt Lake Center
Thu 02:28:12 PM 41.8111 -111.3783 205° Southwest 494 568 40,000  Level Salt Lake Center
Thu 02:29:14 PM 41.6858 -111.4583 206° Southwest 497 572 40,000  Level Salt Lake Center
Thu 02:30:16 PM 41.5592 -111.5392 206° Southwest 504 580 40,000  Level Salt Lake Center
Thu 02:31:18 PM 41.4336 -111.6181 205° Southwest 502 578 40,000  Level Salt Lake Center
Thu 02:32:20 PM 41.2836 -111.7122 205° Southwest 500 575 40,000  Level Salt Lake Center
Thu 02:33:22 PM 41.1581 -111.7914 205° Southwest 501 577 40,000  Level Salt Lake Center
Thu 02:34:24 PM 41.0306 -111.8711 205° Southwest 501 577 40,000  Level Salt Lake Center
Thu 02:35:26 PM 40.8908 -111.9425 201° Southwest 490 564 40,000  Level Salt Lake Center
Thu 02:36:28 PM 40.7575 -111.9714 189° South 489 563 40,000  Level Salt Lake Center
Thu 02:37:30 PM 40.6186 -111.9647 178° South 497 572 40,000  Level Salt Lake Center
Thu 02:38:32 PM 40.4814 -111.9556 177° South 496 571 40,000  Level Salt Lake Center
Thu 02:39:33 PM 40.3447 -111.9456 177° South 493 567 40,000  Level Salt Lake Center
Thu 02:40:35 PM 40.2081 -111.9356 177° South 493 567 40,000  Level Salt Lake Center
Thu 02:41:37 PM 40.0447 -111.9203 176° South 489 563 40,000  Level Salt Lake Center
Thu 02:42:39 PM 39.9086 -111.9083 176° South 491 565 40,000  Level Salt Lake Center
Thu 02:43:41 PM 39.7714 -111.8978 177° South 493 567 40,000  Level Salt Lake Center
Thu 02:44:43 PM 39.6358 -111.8864 176° South 489 563 40,000  Level Salt Lake Center
Thu 02:45:45 PM 39.5097 -111.9447 200° South 496 571 40,000  Level Salt Lake Center
Thu 02:46:47 PM 39.3992 -112.0511 217° Southwest 496 571 40,000  Level Salt Lake Center
Thu 02:47:49 PM 39.2644 -112.1758 216° Southwest 496 571 40,000  Level Salt Lake Center
Thu 02:48:50 PM 39.1561 -112.2772 216° Southwest 496 571 40,000  Level Salt Lake Center
Thu 02:49:52 PM 39.0458 -112.3844 217° Southwest 498 573 40,000  Level Salt Lake Center
Thu 02:50:54 PM 38.9333 -112.4867 215° Southwest 497 572 40,000  Level Salt Lake Center
Thu 02:51:56 PM 38.8222 -112.5906 216° Southwest 497 572 40,000  Level Salt Lake Center
Thu 02:52:58 PM 38.7114 -112.6942 216° Southwest 496 571 40,000  Level Salt Lake Center
Thu 02:54:00 PM 38.5772 -112.8167 216° Southwest 496 571 40,000  Level Salt Lake Center
Thu 02:55:01 PM 38.4661 -112.9186 216° Southwest 495 570 40,000  Level Salt Lake Center
Thu 02:56:03 PM 38.3547 -113.0200 216° Southwest 495 570 40,000  Level Salt Lake Center
Thu 02:57:05 PM 38.2397 -113.1144 213° Southwest 496 571 40,000  Level Salt Lake Center
Thu 02:58:07 PM 38.1236 -113.2072 212° Southwest 497 572 40,000  Level Salt Lake Center
Thu 02:59:09 PM 37.9836 -113.3192 212° Southwest 502 578 40,000  Level Salt Lake Center
Thu 03:00:10 PM 37.8669 -113.4125 212° Southwest 501 577 40,000  Level Salt Lake Center
Thu 03:01:12 PM 37.7483 -113.5075 212° Southwest 502 578 40,000  Level Salt Lake Center
Thu 03:02:14 PM 37.6306 -113.6011 212° Southwest 503 579 40,000  Level Salt Lake Center
Thu 03:03:16 PM 37.5133 -113.6928 212° Southwest 501 577 40,000  Level Salt Lake Center
Thu 03:04:17 PM 37.3964 -113.7850 212° Southwest 500 575 40,000  Level Salt Lake Center
Thu 03:05:19 PM 37.2553 -113.8950 212° Southwest 500 575 40,000  Level Salt Lake Center
Thu 03:06:21 PM 37.1386 -113.9889 213° Southwest 500 575 40,000  Level Salt Lake Center
Thu 03:07:11 PM 37.0436 -114.0589 210° Southwest 500 575 40,000  Level Los Angeles Center
Thu 03:08:13 PM 36.9253 -114.1511 212° Southwest 500 575 40,000  Level Los Angeles Center
Thu 03:09:16 PM 36.8069 -114.2428 212° Southwest 500 575 40,000  Level Los Angeles Center
Thu 03:10:18 PM 36.6881 -114.3339 212° Southwest 500 575 40,000  Level Los Angeles Center
Thu 03:11:20 PM 36.5456 -114.4425 211° Southwest 500 575 40,000  Level Los Angeles Center
Thu 03:12:22 PM 36.4272 -114.5322 211° Southwest 497 572 40,000  Level Los Angeles Center
Thu 03:13:28 PM 36.3083 -114.6231 212° Southwest 499 574 40,000  Level Los Angeles Center
Thu 03:14:26 PM 36.1900 -114.7147 212° Southwest 499 574 40,000  Level Los Angeles Center
Thu 03:15:28 PM 36.0714 -114.8050 212° Southwest 497 572 40,000  Level Los Angeles Center
Thu 03:16:32 PM 35.9619 -114.9111 218° Southwest 499 574 40,000  Level Los Angeles Center
Thu 03:17:33 PM 35.8678 -115.0367 227° Southwest 496 571 40,000  Level Los Angeles Center
Thu 03:18:35 PM 35.7556 -115.1892 228° Southwest 497 572 40,000  Level Los Angeles Center
Thu 03:19:37 PM 35.6633 -115.3169 228° Southwest 496 571 40,000  Level Los Angeles Center
Thu 03:20:39 PM 35.5708 -115.4419 228° Southwest 492 566 40,000  Level Los Angeles Center
Thu 03:21:41 PM 35.4778 -115.5644 227° Southwest 490 564 40,000  Level Los Angeles Center
Thu 03:22:43 PM 35.3933 -115.6775 228° Southwest 489 563 40,000  Level Los Angeles Center
Thu 03:23:45 PM 35.2831 -115.8256 228° Southwest 490 564 40,000 -1,113 Level Los Angeles Center
Thu 03:24:47 PM 35.1906 -115.9475 227° Southwest 489 563 37,700 -2,208 Descending Los Angeles Center
Thu 03:25:50 PM 35.0972 -116.0703 227° Southwest 494 568 35,400 -2,048 Descending Los Angeles Center
Thu 03:26:53 PM 35.0022 -116.1858 225° Southwest 488 562 33,400 -2,323 Descending Los Angeles Center
Thu 03:27:54 PM 34.8828 -116.2433 202° Southwest 465 535 30,600 -2,341 Descending Los Angeles Center
Thu 03:28:56 PM 34.8033 -116.3678 232° Southwest 465 535 28,600 -1,544 Descending Los Angeles Center
Thu 03:30:10 PM 34.7114 -116.5064 231° Southwest 440 506 27,100 -701 Descending Los Angeles Center
Thu 03:31:13 PM 34.6153 -116.6394 229° Southwest 435 501 27,000 -48 Descending Los Angeles Center
Thu 03:32:15 PM 34.5350 -116.7506 229° Southwest 435 501 27,000 -726 Level Los Angeles Center
Thu 03:33:17 PM 34.4575 -116.8603 229° Southwest 428 493 25,500 -1,500 Descending Los Angeles Center
Thu 03:34:19 PM 34.3817 -116.9667 229° Southwest 420 483 23,900 -1,597 Descending Los Angeles Center
Thu 03:35:21 PM 34.3078 -117.0678 229° Southwest 405 466 22,200 -1,645 Descending Los Angeles Center
Thu 03:36:23 PM 34.2292 -117.1783 229° Southwest 387 445 20,500 -1,984 Descending Los Angeles Center
Thu 03:37:25 PM 34.1697 -117.2603 229° Southwest 349 402 18,100 -1,424 Descending Los Angeles Center
Thu 03:38:21 PM 34.1000 -117.3500 227° Southwest 336 387 17,700 -1,241 Descending Southern California TRACON
Thu 03:39:21 PM 34.0333 -117.4500 231° Southwest 325 374 15,700 -2,231 Descending Southern California TRACON
Thu 03:40:22 PM 34.0333 -117.5500 270° West 313 360 13,200 -1,438 Descending Southern California TRACON
Thu 03:41:22 PM 34.0333 -117.6500 270° West 278 320 12,800 -864 Descending Southern California TRACON
Thu 03:42:27 PM 34.0167 -117.7333 256° West 252 290 11,400 -1,450 Descending Southern California TRACON
Thu 03:43:22 PM 34.0167 -117.8167 270° West 237 273 9,900 -1,513 Descending Southern California TRACON
Thu 03:44:22 PM 34.0000 -117.8833 253° West 220 253 8,500 -1,300 Descending Southern California TRACON
Thu 03:45:22 PM 34.0000 -117.9667 270° West 216 249 7,300 -1,200 Descending Southern California TRACON
Thu 03:46:22 PM 33.9833 -118.0333 253° West 207 238 6,100 -1,095 Descending Southern California TRACON
Thu 03:47:28 PM 33.9833 -118.1000 270° West 181 208 5,000 -992 Descending Southern California TRACON
Thu 03:48:29 PM 33.9833 -118.1667 270° West 175 201 4,000 -968 Descending Southern California TRACON
Thu 03:49:01 PM 33.9744 -118.1928 248° West 179 206 3,500 -830 Descending Los Angeles Center
Thu 03:50:03 PM 33.9689 -118.2450 263° West 169 194 2,700 -774 Descending Los Angeles Center
Thu 03:51:05 PM 33.9639 -118.2925 263° West 155 178 1,900 -726 Descending Los Angeles Center
Thu 03:52:07 PM 33.9589 -118.3389 263° West 147 169 1,200 -677 Descending Los Angeles Center
Thu 03:53:09 PM 33.9553 -118.3842 265° West 141 162 500 -528 Descending Los Angeles Center
Thu 03:54:12 PM 33.9497 -118.4336 262° West 138 159 100 -381 Descending Los Angeles Center

Login

Don't have an account? Register now (free) for customized features, flight alerts, and more!